Time;durP1;ratioP1;P1;durP2;ratioP2;P2;SDS_P1;SDS_P2;PMS_P1;PMS_P2;Temp;Humidity;BMP_temperature;BMP_pressure;BME280_temperature;BME280_humidity;BME280_pressure;Samples;Min_cycle;Max_cycle;Signal;HPM_P1;HPM_P2
2022/11/02 00:02:01;;;;;;;6.37;2.43;;;;;;;;;;5066612;28;20607;-47
2022/11/02 00:04:27;;;;;;;5.33;2.00;;;;;;;;;;5068349;28;20736;-47
2022/11/02 00:06:54;;;;;;;5.37;1.90;;;;;;;;;;5062677;28;20227;-46
2022/11/02 00:09:20;;;;;;;7.00;1.80;;;;;;;;;;5063398;28;20262;-46
2022/11/02 00:11:46;;;;;;;6.63;2.20;;;;;;;;;;5066375;28;20306;-46
2022/11/02 00:14:12;;;;;;;8.50;2.47;;;;;;;;;;5070098;28;20354;-46
2022/11/02 00:16:39;;;;;;;8.03;2.27;;;;;;;;;;5066590;28;20204;-46
2022/11/02 00:19:05;;;;;;;6.83;2.07;;;;;;;;;;5064010;28;20658;-47
2022/11/02 00:21:31;;;;;;;8.13;2.33;;;;;;;;;;5063023;28;20840;-47
2022/11/02 00:23:59;;;;;;;5.03;1.87;;;;;;;;;;5066436;28;20668;-46
2022/11/02 00:26:27;;;;;;;12.57;2.30;;;;;;;;;;5069909;28;20249;-46
2022/11/02 00:28:53;;;;;;;12.87;2.80;;;;;;;;;;5066584;28;20204;-46
2022/11/02 00:31:19;;;;;;;6.27;2.20;;;;;;;;;;5066329;28;20257;-46
2022/11/02 00:33:45;;;;;;;8.77;2.47;;;;;;;;;;5064696;28;20210;-45
2022/11/02 00:36:11;;;;;;;5.80;2.17;;;;;;;;;;5069511;28;20797;-45
2022/11/02 00:38:37;;;;;;;7.53;2.23;;;;;;;;;;5065704;28;20192;-46
2022/11/02 00:41:05;;;;;;;7.80;2.30;;;;;;;;;;5062425;28;20572;-46
2022/11/02 00:43:31;;;;;;;7.57;2.30;;;;;;;;;;5064269;28;20558;-46
2022/11/02 00:45:57;;;;;;;8.93;2.43;;;;;;;;;;5066948;28;20289;-46
2022/11/02 00:48:23;;;;;;;8.83;2.30;;;;;;;;;;5065849;28;20538;-45
2022/11/02 00:50:49;;;;;;;5.17;2.07;;;;;;;;;;5065544;28;20210;-46
2022/11/02 00:53:15;;;;;;;8.50;1.80;;;;;;;;;;5063993;28;20623;-46
2022/11/02 00:55:41;;;;;;;5.93;2.17;;;;;;;;;;5069057;28;20233;-46
2022/11/02 00:58:09;;;;;;;5.93;2.03;;;;;;;;;;5067666;28;20195;-45
2022/11/02 01:00:35;;;;;;;7.27;2.20;;;;;;;;;;5065867;28;20666;-46
2022/11/02 01:03:01;;;;;;;6.50;2.33;;;;;;;;;;5061750;28;20235;-45
2022/11/02 01:05:27;;;;;;;7.77;2.10;;;;;;;;;;5067240;28;20234;-46
2022/11/02 01:07:54;;;;;;;9.37;2.47;;;;;;;;;;5067479;28;20645;-46
2022/11/02 01:10:20;;;;;;;7.37;3.03;;;;;;;;;;5065740;28;20734;-46
2022/11/02 01:12:46;;;;;;;8.47;2.30;;;;;;;;;;5065741;28;20203;-46
2022/11/02 01:15:13;;;;;;;8.33;2.13;;;;;;;;;;5063897;28;21120;-46
2022/11/02 01:17:39;;;;;;;8.17;2.20;;;;;;;;;;5068176;28;20689;-46
2022/11/02 01:20:07;;;;;;;8.63;2.03;;;;;;;;;;5066861;28;20730;-46
2022/11/02 01:22:33;;;;;;;8.20;2.43;;;;;;;;;;5063433;28;20215;-46
2022/11/02 01:24:59;;;;;;;11.30;2.57;;;;;;;;;;5063501;28;20196;-46
2022/11/02 01:27:25;;;;;;;5.93;2.00;;;;;;;;;;5063576;28;20206;-46
2022/11/02 01:29:51;;;;;;;7.87;2.13;;;;;;;;;;5065274;28;20586;-46
2022/11/02 01:32:18;;;;;;;9.93;2.90;;;;;;;;;;5065023;28;20206;-46
2022/11/02 01:34:44;;;;;;;6.67;2.40;;;;;;;;;;5068249;28;20230;-46
2022/11/02 01:37:10;;;;;;;11.40;2.33;;;;;;;;;;5062452;28;20257;-46
2022/11/02 01:39:36;;;;;;;9.13;2.53;;;;;;;;;;5062605;28;20249;-45
2022/11/02 01:42:02;;;;;;;8.67;1.97;;;;;;;;;;5063030;28;20196;-46
2022/11/02 01:44:29;;;;;;;9.33;2.47;;;;;;;;;;5068573;28;20207;-46
2022/11/02 01:46:58;;;;;;;10.93;2.50;;;;;;;;;;5066222;28;20591;-46
2022/11/02 01:49:26;;;;;;;6.10;2.13;;;;;;;;;;5063214;28;20212;-46
2022/11/02 01:51:55;;;;;;;7.50;2.20;;;;;;;;;;5064872;28;20323;-46
2022/11/02 01:54:23;;;;;;;10.17;2.47;;;;;;;;;;5063465;28;20204;-45
2022/11/02 01:56:53;;;;;;;6.37;2.10;;;;;;;;;;5068529;28;20253;-46
2022/11/02 01:59:20;;;;;;;8.47;2.07;;;;;;;;;;5065052;28;20223;-45
2022/11/02 02:01:46;;;;;;;9.80;2.23;;;;;;;;;;5064948;28;20204;-46
2022/11/02 02:04:13;;;;;;;7.83;2.53;;;;;;;;;;5062783;28;20230;-46
2022/11/02 02:06:40;;;;;;;6.23;2.23;;;;;;;;;;5062940;28;20285;-45
2022/11/02 02:09:07;;;;;;;5.57;2.10;;;;;;;;;;5062464;28;20681;-46
2022/11/02 02:11:34;;;;;;;10.07;2.73;;;;;;;;;;5068391;28;20282;-46
2022/11/02 02:14:02;;;;;;;12.50;2.33;;;;;;;;;;5066385;28;20199;-45
2022/11/02 02:16:36;;;;;;;5.70;2.07;;;;;;;;;;5063028;28;20207;-46
2022/11/02 02:19:08;;;;;;;6.73;1.93;;;;;;;;;;5062698;28;20290;-46
2022/11/02 02:21:38;;;;;;;7.93;2.27;;;;;;;;;;5062917;28;20199;-46
2022/11/02 02:24:20;;;;;;;8.83;2.47;;;;;;;;;;5062225;28;20191;-46
2022/11/02 02:27:13;;;;;;;9.77;2.40;;;;;;;;;;5067952;28;20561;-46
2022/11/02 02:29:46;;;;;;;8.73;2.50;;;;;;;;;;5031866;28;20206;-46
2022/11/02 02:32:15;;;;;;;8.57;2.30;;;;;;;;;;5062711;28;20206;-46
2022/11/02 02:34:44;;;;;;;10.20;2.53;;;;;;;;;;5062792;28;20266;-46
2022/11/02 02:37:13;;;;;;;12.53;2.93;;;;;;;;;;5062701;28;20290;-46
2022/11/02 02:39:41;;;;;;;8.30;2.50;;;;;;;;;;5066722;28;20191;-46
2022/11/02 02:42:11;;;;;;;7.87;2.30;;;;;;;;;;5064998;28;20199;-46
2022/11/02 02:44:40;;;;;;;8.00;2.60;;;;;;;;;;5062300;28;20203;-45
2022/11/02 02:47:10;;;;;;;7.07;2.20;;;;;;;;;;5064114;28;20662;-45
2022/11/02 02:49:40;;;;;;;8.73;2.53;;;;;;;;;;5067989;28;20719;-45
2022/11/02 02:52:07;;;;;;;11.77;2.37;;;;;;;;;;5065691;28;20262;-46
2022/11/02 02:54:35;;;;;;;9.53;2.40;;;;;;;;;;5058985;28;20221;-46
2022/11/02 02:57:05;;;;;;;10.43;2.50;;;;;;;;;;5062446;28;20207;-46
2022/11/02 02:59:33;;;;;;;7.37;2.23;;;;;;;;;;5065911;28;20238;-45
2022/11/02 03:01:59;;;;;;;9.57;2.30;;;;;;;;;;5065900;28;20196;-45
2022/11/02 03:04:27;;;;;;;8.93;2.57;;;;;;;;;;5064382;28;20219;-46
2022/11/02 03:06:55;;;;;;;11.33;2.50;;;;;;;;;;5062360;28;20219;-45
2022/11/02 03:09:25;;;;;;;6.77;2.37;;;;;;;;;;5064021;28;20579;-45
2022/11/02 03:11:55;;;;;;;5.37;2.20;;;;;;;;;;5065755;28;20238;-46
2022/11/02 03:14:32;;;;;;;6.77;2.20;;;;;;;;;;5067565;28;20286;-45
2022/11/02 03:17:04;;;;;;;9.37;2.90;;;;;;;;;;5062280;28;20278;-45
2022/11/02 03:19:36;;;;;;;9.57;3.17;;;;;;;;;;5062250;28;20206;-45
2022/11/02 03:22:05;;;;;;;8.70;2.60;;;;;;;;;;5062237;28;20206;-45
2022/11/02 03:24:34;;;;;;;5.90;2.00;;;;;;;;;;5067572;28;20206;-46
2022/11/02 03:27:06;;;;;;;6.97;2.30;;;;;;;;;;5065526;28;20227;-46
2022/11/02 03:29:37;;;;;;;6.47;2.20;;;;;;;;;;5062255;28;20253;-45
2022/11/02 03:32:07;;;;;;;9.63;2.70;;;;;;;;;;5061942;28;20203;-45
2022/11/02 03:34:38;;;;;;;11.07;2.50;;;;;;;;;;5062210;28;20712;-46
2022/11/02 03:37:08;;;;;;;7.93;2.30;;;;;;;;;;5065592;28;20204;-45
2022/11/02 03:39:36;;;;;;;8.83;2.10;;;;;;;;;;5067345;28;20654;-45
2022/11/02 03:42:03;;;;;;;4.63;2.00;;;;;;;;;;5064846;28;20192;-45
2022/11/02 03:44:30;;;;;;;8.57;2.60;;;;;;;;;;5065707;28;20211;-45
2022/11/02 03:46:59;;;;;;;6.80;2.47;;;;;;;;;;5065081;28;20230;-46
2022/11/02 03:49:26;;;;;;;8.13;2.57;;;;;;;;;;5067268;28;20742;-45
2022/11/02 03:51:55;;;;;;;7.23;2.30;;;;;;;;;;5070701;28;20249;-45
2022/11/02 03:54:26;;;;;;;8.57;2.57;;;;;;;;;;5068866;28;20206;-45
2022/11/02 03:56:54;;;;;;;8.67;2.50;;;;;;;;;;5064657;28;20222;-45
2022/11/02 03:59:20;;;;;;;10.57;2.40;;;;;;;;;;5066321;28;20198;-45
2022/11/02 04:01:47;;;;;;;9.00;2.10;;;;;;;;;;5065415;28;20241;-46
2022/11/02 04:04:14;;;;;;;9.37;2.80;;;;;;;;;;5066961;28;20199;-45
2022/11/02 04:06:41;;;;;;;7.77;2.10;;;;;;;;;;5070417;28;20284;-45
2022/11/02 04:09:08;;;;;;;9.07;2.37;;;;;;;;;;5067149;28;20219;-46
2022/11/02 04:14:38;;;;;;;6.63;2.10;;;;;;;;;;5067249;28;20194;-46
2022/11/02 04:19:50;;;;;;;6.77;2.70;;;;;;;;;;5069144;28;20197;-45
2022/11/02 04:25:19;;;;;;;7.77;2.17;;;;;;;;;;5028261;28;20674;-45
2022/11/02 04:27:46;;;;;;;10.67;2.57;;;;;;;;;;5061876;28;20231;-45
2022/11/02 04:30:13;;;;;;;12.00;2.87;;;;;;;;;;5070398;28;20595;-45
2022/11/02 04:35:24;;;;;;;6.60;2.30;;;;;;;;;;5070382;28;20218;-46
2022/11/02 04:40:36;;;;;;;6.70;2.00;;;;;;;;;;5069518;28;20249;-46
2022/11/02 04:43:02;;;;;;;7.77;2.43;;;;;;;;;;5068414;28;20689;-46
2022/11/02 04:45:28;;;;;;;8.60;2.10;;;;;;;;;;5068537;28;20624;-45
2022/11/02 04:47:59;;;;;;;5.57;2.30;;;;;;;;;;5062552;28;20200;-45
2022/11/02 04:50:25;;;;;;;4.50;2.23;;;;;;;;;;5064330;28;20203;-45
2022/11/02 04:52:54;;;;;;;8.33;2.07;;;;;;;;;;5063275;28;20253;-46
2022/11/02 04:55:20;;;;;;;7.13;2.23;;;;;;;;;;5063449;28;20291;-45
2022/11/02 04:57:48;;;;;;;6.13;2.30;;;;;;;;;;5064635;28;20233;-45
2022/11/02 05:00:14;;;;;;;6.57;2.30;;;;;;;;;;5068546;28;20283;-45
2022/11/02 05:02:40;;;;;;;8.17;2.53;;;;;;;;;;5068838;28;20200;-45
2022/11/02 05:05:07;;;;;;;8.97;2.20;;;;;;;;;;5063966;28;20603;-46
2022/11/02 05:07:33;;;;;;;6.20;2.13;;;;;;;;;;5063837;28;20740;-45
2022/11/02 05:09:59;;;;;;;7.63;2.07;;;;;;;;;;5063767;28;20203;-45
2022/11/02 05:12:25;;;;;;;8.40;2.20;;;;;;;;;;5067253;28;20206;-45
2022/11/02 05:14:52;;;;;;;8.10;2.27;;;;;;;;;;5067713;28;20210;-46
2022/11/02 05:17:18;;;;;;;7.90;2.60;;;;;;;;;;5064761;28;20299;-46
2022/11/02 05:19:44;;;;;;;13.27;2.90;;;;;;;;;;5063299;28;20274;-45
2022/11/02 05:22:10;;;;;;;12.17;2.63;;;;;;;;;;5062940;28;20665;-45
2022/11/02 05:24:36;;;;;;;8.03;2.30;;;;;;;;;;5066774;28;20674;-45
2022/11/02 05:27:02;;;;;;;8.03;2.27;;;;;;;;;;5066717;28;20300;-45
2022/11/02 05:29:28;;;;;;;6.97;2.37;;;;;;;;;;5066767;28;20278;-46
2022/11/02 05:31:56;;;;;;;6.27;2.20;;;;;;;;;;5063184;28;20676;-46
2022/11/02 05:34:22;;;;;;;6.13;2.30;;;;;;;;;;5064772;28;20204;-46
2022/11/02 05:36:48;;;;;;;7.43;2.33;;;;;;;;;;5065064;28;20204;-45
2022/11/02 05:39:14;;;;;;;6.57;2.77;;;;;;;;;;5067064;28;20203;-46
2022/11/02 05:41:40;;;;;;;9.13;2.13;;;;;;;;;;5064895;28;20199;-46
2022/11/02 05:44:07;;;;;;;7.90;2.30;;;;;;;;;;5062168;28;20195;-46
2022/11/02 05:46:33;;;;;;;8.10;3.23;;;;;;;;;;5063052;28;20258;-45
2022/11/02 05:49:00;;;;;;;7.50;2.53;;;;;;;;;;5061139;28;20202;-45
2022/11/02 05:51:26;;;;;;;4.87;2.07;;;;;;;;;;5063934;28;20335;-46
2022/11/02 05:53:52;;;;;;;6.10;2.23;;;;;;;;;;5068258;28;20199;-45
2022/11/02 05:56:18;;;;;;;8.83;2.43;;;;;;;;;;5064589;28;20196;-45
2022/11/02 05:58:44;;;;;;;7.37;2.07;;;;;;;;;;5064835;28;20192;-45
2022/11/02 06:01:10;;;;;;;8.57;2.70;;;;;;;;;;5061837;28;20196;-45
2022/11/02 06:03:37;;;;;;;10.70;2.70;;;;;;;;;;5062354;28;20191;-45
2022/11/02 06:06:05;;;;;;;9.90;2.80;;;;;;;;;;5064449;28;20234;-45
2022/11/02 06:08:32;;;;;;;9.07;2.90;;;;;;;;;;5068219;28;20227;-45
2022/11/02 06:10:58;;;;;;;7.80;3.00;;;;;;;;;;5065890;28;20206;-45
2022/11/02 06:13:24;;;;;;;10.47;3.27;;;;;;;;;;5062505;28;20203;-45
2022/11/02 06:15:50;;;;;;;6.90;2.70;;;;;;;;;;5064148;28;20188;-45
2022/11/02 06:18:16;;;;;;;9.73;3.27;;;;;;;;;;5064168;28;20229;-45
2022/11/02 06:20:42;;;;;;;10.87;3.50;;;;;;;;;;5065001;28;20731;-45
2022/11/02 06:23:13;;;;;;;10.63;2.83;;;;;;;;;;5065920;28;20195;-46
2022/11/02 06:25:39;;;;;;;5.90;2.53;;;;;;;;;;5064465;28;20214;-46
2022/11/02 06:28:05;;;;;;;8.30;2.40;;;;;;;;;;5061550;28;20226;-45
2022/11/02 06:30:31;;;;;;;10.77;2.73;;;;;;;;;;5061689;28;20196;-45
2022/11/02 06:32:57;;;;;;;6.40;2.53;;;;;;;;;;5065327;28;20674;-45
2022/11/02 06:35:23;;;;;;;9.77;2.73;;;;;;;;;;5067533;28;20206;-45
2022/11/02 06:37:49;;;;;;;6.60;2.53;;;;;;;;;;5064266;28;20187;-45
2022/11/02 06:40:16;;;;;;;6.73;2.87;;;;;;;;;;5061006;28;20230;-45
2022/11/02 06:42:42;;;;;;;7.63;2.70;;;;;;;;;;5062417;28;20282;-45
2022/11/02 06:45:09;;;;;;;10.93;2.50;;;;;;;;;;5062273;28;20222;-45
2022/11/02 06:47:36;;;;;;;8.00;3.07;;;;;;;;;;5066332;28;20523;-45
2022/11/02 06:50:03;;;;;;;9.57;3.27;;;;;;;;;;5065277;28;20241;-45
2022/11/02 06:52:29;;;;;;;10.03;2.57;;;;;;;;;;5062945;28;20231;-46
2022/11/02 06:54:56;;;;;;;6.13;2.63;;;;;;;;;;5060070;28;20203;-45
2022/11/02 06:57:23;;;;;;;5.83;2.40;;;;;;;;;;5061973;28;20237;-46
2022/11/02 06:59:49;;;;;;;9.20;2.70;;;;;;;;;;5063996;28;20204;-45
2022/11/02 07:02:15;;;;;;;6.80;2.43;;;;;;;;;;5065590;28;20199;-45
2022/11/02 07:04:41;;;;;;;5.90;2.10;;;;;;;;;;5067225;28;20729;-45
2022/11/02 07:07:07;;;;;;;11.47;2.20;;;;;;;;;;5061662;28;20259;-45
2022/11/02 07:09:33;;;;;;;8.90;2.80;;;;;;;;;;5061744;28;20625;-44
2022/11/02 07:11:59;;;;;;;10.17;2.43;;;;;;;;;;5064740;28;20727;-45
2022/11/02 07:14:27;;;;;;;6.60;2.47;;;;;;;;;;5067387;28;20202;-45
2022/11/02 07:16:53;;;;;;;6.97;2.60;;;;;;;;;;5066665;28;20196;-44
2022/11/02 07:19:19;;;;;;;7.83;2.60;;;;;;;;;;5065851;28;20256;-44
2022/11/02 07:21:45;;;;;;;11.20;2.27;;;;;;;;;;5067716;28;20203;-44
2022/11/02 07:24:11;;;;;;;6.87;2.97;;;;;;;;;;5067546;28;20199;-45
2022/11/02 07:26:37;;;;;;;5.20;2.47;;;;;;;;;;5070929;28;20227;-45
2022/11/02 07:29:03;;;;;;;8.30;2.80;;;;;;;;;;5067448;28;20728;-44
2022/11/02 07:31:31;;;;;;;12.83;2.70;;;;;;;;;;5065593;28;20674;-44
2022/11/02 07:33:57;;;;;;;7.77;2.37;;;;;;;;;;5065701;28;20223;-44
2022/11/02 07:36:23;;;;;;;7.83;2.47;;;;;;;;;;5065532;28;20804;-44
2022/11/02 07:38:49;;;;;;;9.53;2.63;;;;;;;;;;5067317;28;20192;-45
2022/11/02 07:41:15;;;;;;;6.43;2.30;;;;;;;;;;5070597;28;20203;-44
2022/11/02 07:43:41;;;;;;;9.93;2.77;;;;;;;;;;5070541;28;20716;-45
2022/11/02 07:46:07;;;;;;;7.47;2.47;;;;;;;;;;5063251;28;20717;-45
2022/11/02 07:48:35;;;;;;;8.17;2.70;;;;;;;;;;5063973;28;20203;-45
2022/11/02 07:51:01;;;;;;;5.57;2.00;;;;;;;;;;5065894;28;20534;-45
2022/11/02 07:53:27;;;;;;;8.17;2.30;;;;;;;;;;5070536;28;20274;-44
2022/11/02 07:55:53;;;;;;;8.07;2.40;;;;;;;;;;5068848;28;20295;-45
2022/11/02 07:58:19;;;;;;;6.47;2.40;;;;;;;;;;5065125;28;20293;-45
2022/11/02 08:00:45;;;;;;;8.63;2.37;;;;;;;;;;5067156;28;20202;-45
2022/11/02 08:03:13;;;;;;;6.83;1.93;;;;;;;;;;5065000;28;20636;-46
2022/11/02 08:05:42;;;;;;;8.97;2.37;;;;;;;;;;5068352;28;20208;-45
2022/11/02 08:08:09;;;;;;;7.30;2.03;;;;;;;;;;5067989;28;20403;-46
2022/11/02 08:10:36;;;;;;;6.37;2.33;;;;;;;;;;5066805;28;20195;-44
2022/11/02 08:13:02;;;;;;;7.03;2.23;;;;;;;;;;5065236;28;20203;-45
2022/11/02 08:15:28;;;;;;;6.87;2.13;;;;;;;;;;5069818;28;20196;-45
2022/11/02 08:18:01;;;;;;;8.23;2.27;;;;;;;;;;5068640;28;20279;-45
2022/11/02 08:20:27;;;;;;;7.57;2.23;;;;;;;;;;5065170;28;20199;-45
2022/11/02 08:22:54;;;;;;;7.87;2.43;;;;;;;;;;5065125;28;20682;-45
2022/11/02 08:25:20;;;;;;;4.60;1.90;;;;;;;;;;5067091;28;20674;-45
2022/11/02 08:27:46;;;;;;;5.53;2.00;;;;;;;;;;5066651;28;20277;-45
2022/11/02 08:30:13;;;;;;;6.53;2.43;;;;;;;;;;5070685;28;20286;-45
2022/11/02 08:32:39;;;;;;;6.73;2.63;;;;;;;;;;5068636;28;20204;-45
2022/11/02 08:35:05;;;;;;;7.33;2.13;;;;;;;;;;5065143;28;20191;-45
2022/11/02 08:37:31;;;;;;;6.97;1.77;;;;;;;;;;5065240;28;20207;-45
2022/11/02 08:39:58;;;;;;;8.90;2.30;;;;;;;;;;5066286;28;20191;-45
2022/11/02 08:42:25;;;;;;;6.43;2.10;;;;;;;;;;5069396;28;20249;-45
2022/11/02 08:44:51;;;;;;;9.90;1.97;;;;;;;;;;5068121;28;20670;-45
2022/11/02 08:47:17;;;;;;;5.93;2.13;;;;;;;;;;5064727;28;20314;-45
2022/11/02 08:49:45;;;;;;;4.27;2.03;;;;;;;;;;5065831;28;20228;-46
2022/11/02 08:52:12;;;;;;;8.50;1.93;;;;;;;;;;5069622;28;20243;-45
2022/11/02 08:54:38;;;;;;;12.77;2.40;;;;;;;;;;5068153;28;20191;-45
2022/11/02 08:57:05;;;;;;;5.37;2.00;;;;;;;;;;5064287;28;20554;-46
2022/11/02 08:59:31;;;;;;;9.07;2.20;;;;;;;;;;5063821;28;20646;-46
2022/11/02 09:01:57;;;;;;;5.73;2.27;;;;;;;;;;5066554;28;20238;-46
2022/11/02 09:04:23;;;;;;;9.70;2.07;;;;;;;;;;5069074;28;20196;-45
2022/11/02 09:06:49;;;;;;;9.20;2.47;;;;;;;;;;5067278;28;20310;-45
2022/11/02 09:09:15;;;;;;;6.60;2.60;;;;;;;;;;5063838;28;20777;-45
2022/11/02 09:11:41;;;;;;;6.40;2.00;;;;;;;;;;5064015;28;20287;-45
2022/11/02 09:14:09;;;;;;;6.13;1.80;;;;;;;;;;5063787;28;20200;-45
2022/11/02 09:16:35;;;;;;;4.90;1.90;;;;;;;;;;5067368;28;20258;-45
2022/11/02 09:19:01;;;;;;;5.60;2.33;;;;;;;;;;5067300;28;20872;-45
2022/11/02 09:21:27;;;;;;;7.13;2.00;;;;;;;;;;5067253;28;20204;-45
2022/11/02 09:23:53;;;;;;;8.40;2.20;;;;;;;;;;5063628;28;20206;-46
2022/11/02 09:26:19;;;;;;;5.90;1.90;;;;;;;;;;5064782;28;20233;-46
2022/11/02 09:28:45;;;;;;;7.03;2.20;;;;;;;;;;5066717;28;20188;-45
2022/11/02 09:31:12;;;;;;;7.97;2.57;;;;;;;;;;5066581;28;20207;-45
2022/11/02 09:33:39;;;;;;;7.50;2.10;;;;;;;;;;5065548;28;20207;-45
2022/11/02 09:36:05;;;;;;;11.73;2.60;;;;;;;;;;5064102;28;20187;-45
2022/11/02 09:38:31;;;;;;;9.80;2.20;;;;;;;;;;5063489;28;20203;-45
2022/11/02 09:41:01;;;;;;;4.67;2.00;;;;;;;;;;5064035;28;20200;-45
2022/11/02 09:43:32;;;;;;;6.47;2.03;;;;;;;;;;5064058;28;20604;-44
2022/11/02 09:46:00;;;;;;;8.43;2.13;;;;;;;;;;5063732;28;20694;-45
2022/11/02 09:48:30;;;;;;;9.10;2.70;;;;;;;;;;5065394;28;20560;-45
2022/11/02 09:50:58;;;;;;;7.50;2.03;;;;;;;;;;5067112;28;20242;-44
2022/11/02 09:53:27;;;;;;;5.23;1.93;;;;;;;;;;5068892;28;20245;-44
2022/11/02 09:55:54;;;;;;;4.43;1.77;;;;;;;;;;5067253;28;20203;-44
2022/11/02 09:58:23;;;;;;;6.90;2.27;;;;;;;;;;5068787;28;20283;-44
2022/11/02 10:00:51;;;;;;;6.23;2.00;;;;;;;;;;5066970;28;20195;-44
2022/11/02 10:03:23;;;;;;;7.43;2.40;;;;;;;;;;5068348;28;20230;-45
2022/11/02 10:05:52;;;;;;;5.73;2.20;;;;;;;;;;5068598;28;20240;-44
2022/11/02 10:08:26;;;;;;;6.70;2.73;;;;;;;;;;5068599;28;20223;-44
2022/11/02 10:10:56;;;;;;;7.93;2.23;;;;;;;;;;5066695;28;20192;-44
2022/11/02 10:13:28;;;;;;;4.97;1.80;;;;;;;;;;5068524;28;20669;-45
2022/11/02 10:15:55;;;;;;;4.73;1.80;;;;;;;;;;5066836;28;20239;-44
2022/11/02 10:18:24;;;;;;;5.83;2.00;;;;;;;;;;5068510;28;20214;-45
2022/11/02 10:20:53;;;;;;;6.93;1.60;;;;;;;;;;5066901;28;20199;-44
2022/11/02 10:23:22;;;;;;;6.27;2.03;;;;;;;;;;5063147;28;20277;-44
2022/11/02 10:25:48;;;;;;;6.43;2.13;;;;;;;;;;5064454;28;20603;-44
2022/11/02 10:28:16;;;;;;;5.70;1.90;;;;;;;;;;5062897;28;20187;-44
2022/11/02 10:30:43;;;;;;;4.57;2.10;;;;;;;;;;5063492;28;20198;-45
2022/11/02 10:33:11;;;;;;;9.67;2.37;;;;;;;;;;5064174;28;20282;-44
2022/11/02 10:35:42;;;;;;;7.37;1.77;;;;;;;;;;5066310;28;20273;-44
2022/11/02 10:38:15;;;;;;;3.20;1.53;;;;;;;;;;5067729;28;20196;-44
2022/11/02 10:40:49;;;;;;;10.57;2.27;;;;;;;;;;5066424;28;20204;-44
2022/11/02 10:43:21;;;;;;;5.77;1.63;;;;;;;;;;5067993;28;20195;-45
2022/11/02 10:46:01;;;;;;;3.77;1.70;;;;;;;;;;5068232;28;20219;-44
2022/11/02 10:48:30;;;;;;;7.43;2.00;;;;;;;;;;5068085;28;20195;-44
2022/11/02 10:51:00;;;;;;;4.17;1.90;;;;;;;;;;5067584;28;20763;-44
2022/11/02 10:53:33;;;;;;;5.70;2.03;;;;;;;;;;5072339;28;20205;-44
2022/11/02 10:56:03;;;;;;;3.27;1.70;;;;;;;;;;5070165;28;20723;-45
2022/11/02 10:58:32;;;;;;;4.83;1.80;;;;;;;;;;5071790;28;20195;-45
2022/11/02 11:01:05;;;;;;;5.53;1.57;;;;;;;;;;5069247;28;20205;-45
2022/11/02 11:03:31;;;;;;;4.33;2.00;;;;;;;;;;5071982;28;20200;-45
2022/11/02 11:05:58;;;;;;;4.77;1.70;;;;;;;;;;5066653;28;20195;-45
2022/11/02 11:08:28;;;;;;;4.80;1.87;;;;;;;;;;5066256;28;20280;-45
2022/11/02 11:10:54;;;;;;;2.70;1.50;;;;;;;;;;5066088;28;20573;-45
2022/11/02 11:13:22;;;;;;;4.77;2.00;;;;;;;;;;5065205;28;20191;-45
2022/11/02 11:15:51;;;;;;;5.70;1.70;;;;;;;;;;5067628;28;20207;-45
2022/11/02 11:18:18;;;;;;;6.47;1.80;;;;;;;;;;5070489;28;20642;-45
2022/11/02 11:20:44;;;;;;;5.60;1.73;;;;;;;;;;5070332;28;20844;-45
2022/11/02 11:23:17;;;;;;;4.67;1.63;;;;;;;;;;5067400;28;20218;-45
2022/11/02 11:25:52;;;;;;;7.50;1.70;;;;;;;;;;5063505;28;20205;-45
2022/11/02 11:28:21;;;;;;;5.23;1.60;;;;;;;;;;5067266;28;20710;-45
2022/11/02 11:30:57;;;;;;;4.00;1.70;;;;;;;;;;5065619;28;20311;-45
2022/11/02 11:33:23;;;;;;;5.07;1.60;;;;;;;;;;5071024;28;20283;-45
2022/11/02 11:35:50;;;;;;;6.13;1.87;;;;;;;;;;5069393;28;20235;-44
2022/11/02 11:38:17;;;;;;;8.40;1.80;;;;;;;;;;5065639;28;20218;-44
2022/11/02 11:40:46;;;;;;;7.77;1.80;;;;;;;;;;5067232;28;20204;-44
2022/11/02 11:43:14;;;;;;;6.50;1.63;;;;;;;;;;5067221;28;20562;-45
2022/11/02 11:45:53;;;;;;;7.00;1.90;;;;;;;;;;5070845;28;20545;-44
2022/11/02 11:48:23;;;;;;;4.73;1.60;;;;;;;;;;5066584;28;20291;-45
2022/11/02 11:50:50;;;;;;;4.47;1.60;;;;;;;;;;5066990;28;20254;-45
2022/11/02 11:53:22;;;;;;;7.30;2.20;;;;;;;;;;5065414;28;20676;-44
2022/11/02 11:55:50;;;;;;;9.03;2.10;;;;;;;;;;5066710;28;20698;-45
2022/11/02 11:58:19;;;;;;;5.07;1.37;;;;;;;;;;5070655;28;20732;-44
2022/11/02 12:00:45;;;;;;;4.60;1.50;;;;;;;;;;5069014;28;20214;-45
2022/11/02 12:03:12;;;;;;;4.90;1.80;;;;;;;;;;5064823;28;20203;-45
2022/11/02 12:05:47;;;;;;;6.37;1.53;;;;;;;;;;5065185;28;20187;-45
2022/11/02 12:08:19;;;;;;;4.37;1.70;;;;;;;;;;5062928;28;20271;-45
2022/11/02 12:10:50;;;;;;;5.10;1.93;;;;;;;;;;5069463;28;20241;-45
2022/11/02 12:13:26;;;;;;;6.33;1.90;;;;;;;;;;5063797;28;20200;-44
2022/11/02 12:16:00;;;;;;;6.17;1.73;;;;;;;;;;5061393;28;20253;-45
2022/11/02 12:18:31;;;;;;;5.07;1.70;;;;;;;;;;5063674;28;20200;-46
2022/11/02 12:21:04;;;;;;;5.00;1.87;;;;;;;;;;5065500;28;20207;-47
2022/11/02 12:23:45;;;;;;;2.50;1.33;;;;;;;;;;5069443;28;20219;-46
2022/11/02 12:26:20;;;;;;;4.53;1.60;;;;;;;;;;5061461;28;20860;-45
2022/11/02 12:28:52;;;;;;;7.30;1.77;;;;;;;;;;5064341;28;20203;-45
2022/11/02 12:31:21;;;;;;;4.73;1.70;;;;;;;;;;5068025;28;20203;-45
2022/11/02 12:33:56;;;;;;;6.73;1.50;;;;;;;;;;5067339;28;20696;-46
2022/11/02 12:36:29;;;;;;;5.47;1.60;;;;;;;;;;5066078;28;20609;-45
2022/11/02 12:39:02;;;;;;;4.80;1.60;;;;;;;;;;5063743;28;20598;-45
2022/11/02 12:41:37;;;;;;;2.87;1.30;;;;;;;;;;5063897;28;20206;-45
2022/11/02 12:44:12;;;;;;;4.97;1.97;;;;;;;;;;5064046;28;20209;-45
2022/11/02 12:46:41;;;;;;;5.03;2.10;;;;;;;;;;5067918;28;20306;-44
2022/11/02 12:49:15;;;;;;;8.17;1.60;;;;;;;;;;5067170;28;20192;-45
2022/11/02 12:51:46;;;;;;;5.83;1.40;;;;;;;;;;5065226;28;20235;-46
2022/11/02 12:54:16;;;;;;;4.20;1.40;;;;;;;;;;5064105;28;20198;-46
2022/11/02 12:56:46;;;;;;;8.07;1.70;;;;;;;;;;5064258;28;20202;-46
2022/11/02 12:59:16;;;;;;;6.30;1.87;;;;;;;;;;5069214;28;21119;-46
2022/11/02 13:01:44;;;;;;;4.83;1.73;;;;;;;;;;5069028;28;20204;-46
2022/11/02 13:04:13;;;;;;;5.70;1.60;;;;;;;;;;5064172;28;20680;-46
2022/11/02 13:06:41;;;;;;;4.57;1.70;;;;;;;;;;5065485;28;20219;-46
2022/11/02 13:09:11;;;;;;;5.53;1.70;;;;;;;;;;5065747;28;20573;-46
2022/11/02 13:11:38;;;;;;;6.00;2.13;;;;;;;;;;5068750;28;20196;-46
2022/11/02 13:14:06;;;;;;;4.63;1.90;;;;;;;;;;5064597;28;20199;-46
2022/11/02 13:16:38;;;;;;;2.70;1.37;;;;;;;;;;5064018;28;20207;-46
2022/11/02 13:19:05;;;;;;;3.13;1.43;;;;;;;;;;5064262;28;20278;-46
2022/11/02 13:21:34;;;;;;;3.57;1.80;;;;;;;;;;5065591;28;20303;-46
2022/11/02 13:24:00;;;;;;;4.77;1.93;;;;;;;;;;5067342;28;20268;-46
2022/11/02 13:26:28;;;;;;;4.50;1.80;;;;;;;;;;5068715;28;20596;-46
2022/11/02 13:28:55;;;;;;;4.83;1.70;;;;;;;;;;5063126;28;20203;-50
2022/11/02 13:31:25;;;;;;;5.30;1.77;;;;;;;;;;5063323;28;20199;-51
2022/11/02 13:33:53;;;;;;;3.23;1.57;;;;;;;;;;5065128;28;20224;-50
2022/11/02 13:36:19;;;;;;;2.17;1.33;;;;;;;;;;5063943;28;20195;-46
2022/11/02 13:38:48;;;;;;;4.20;1.70;;;;;;;;;;5065664;28;20861;-45
2022/11/02 13:41:20;;;;;;;3.10;1.50;;;;;;;;;;5066569;28;20983;-43
2022/11/02 13:44:01;;;;;;;5.83;1.57;;;;;;;;;;5065091;28;20195;-46
2022/11/02 13:46:32;;;;;;;5.53;1.80;;;;;;;;;;5049427;28;20227;-46
2022/11/02 13:49:01;;;;;;;8.67;2.00;;;;;;;;;;5062846;28;20204;-45
2022/11/02 13:51:30;;;;;;;4.03;1.70;;;;;;;;;;5068053;28;20244;-45
2022/11/02 13:53:59;;;;;;;10.27;1.90;;;;;;;;;;5066520;28;20246;-45
2022/11/02 13:56:26;;;;;;;3.63;1.40;;;;;;;;;;5063151;28;20200;-45
2022/11/02 13:58:57;;;;;;;3.87;1.73;;;;;;;;;;5063112;28;20199;-45
2022/11/02 14:01:24;;;;;;;4.03;1.77;;;;;;;;;;5065138;28;20275;-44
2022/11/02 14:03:51;;;;;;;4.10;1.77;;;;;;;;;;5065299;28;20207;-44
2022/11/02 14:06:21;;;;;;;4.03;2.27;;;;;;;;;;5067661;28;20469;-44
2022/11/02 14:08:49;;;;;;;6.57;2.10;;;;;;;;;;5064407;28;20303;-44
2022/11/02 14:11:26;;;;;;;4.83;1.77;;;;;;;;;;5062834;28;20195;-44
2022/11/02 14:14:07;;;;;;;6.67;1.60;;;;;;;;;;5062915;28;20668;-44
2022/11/02 14:16:42;;;;;;;6.50;1.90;;;;;;;;;;5064426;28;20568;-44
2022/11/02 14:19:21;;;;;;;6.97;1.93;;;;;;;;;;5066018;28;20206;-44
2022/11/02 14:22:02;;;;;;;3.77;1.63;;;;;;;;;;5065578;28;20219;-44
2022/11/02 14:24:48;;;;;;;5.50;1.87;;;;;;;;;;5060748;28;20200;-44
2022/11/02 14:27:29;;;;;;;3.40;1.37;;;;;;;;;;5060446;28;20304;-45
2022/11/02 14:29:57;;;;;;;6.73;1.50;;;;;;;;;;5063306;28;20199;-45
2022/11/02 14:32:33;;;;;;;7.77;2.07;;;;;;;;;;5065242;28;20218;-45
2022/11/02 14:35:06;;;;;;;6.30;1.67;;;;;;;;;;5062595;28;20199;-45
2022/11/02 14:37:40;;;;;;;5.40;1.80;;;;;;;;;;5062260;28;20201;-45
2022/11/02 14:40:09;;;;;;;5.30;1.77;;;;;;;;;;5064347;28;20293;-45
2022/11/02 14:42:42;;;;;;;5.40;1.87;;;;;;;;;;5067648;28;20200;-45
2022/11/02 14:45:21;;;;;;;8.10;1.90;;;;;;;;;;5065627;28;20203;-44
2022/11/02 14:47:47;;;;;;;5.93;2.10;;;;;;;;;;5064212;28;20219;-45
2022/11/02 14:50:16;;;;;;;5.77;2.03;;;;;;;;;;5061991;28;20195;-45
2022/11/02 14:52:43;;;;;;;5.37;1.70;;;;;;;;;;5061453;28;20683;-45
2022/11/02 14:55:21;;;;;;;8.10;2.00;;;;;;;;;;5063465;28;20200;-44
2022/11/02 14:57:51;;;;;;;6.73;1.80;;;;;;;;;;5067474;28;20195;-44
2022/11/02 15:00:20;;;;;;;7.10;1.80;;;;;;;;;;5061921;28;20283;-45
2022/11/02 15:02:47;;;;;;;6.27;2.13;;;;;;;;;;5063780;28;20222;-45